createdAt,value
2023-05-22T00:00:09.377Z,4.07
2023-05-22T00:00:20.749Z,4.25
2023-05-22T00:00:32.265Z,4.35
2023-05-22T00:00:43.583Z,4.03
2023-05-22T00:00:54.890Z,4.18
2023-05-22T00:01:06.245Z,4.05
2023-05-22T00:01:17.619Z,4.20
2023-05-22T00:01:29.048Z,3.88
2023-05-22T00:01:40.526Z,3.92
2023-05-22T00:01:51.923Z,4.03
2023-05-22T00:02:03.288Z,4.30
2023-05-22T00:02:14.611Z,4.43
2023-05-22T00:02:26.133Z,4.45
2023-05-22T00:02:37.648Z,4.38
2023-05-22T00:02:49.194Z,4.20
2023-05-22T00:03:00.845Z,4.03
2023-05-22T00:03:12.289Z,4.00
2023-05-22T00:03:23.741Z,3.97
2023-05-22T00:03:35.141Z,3.92
2023-05-22T00:03:46.458Z,4.13
2023-05-22T00:03:57.837Z,4.10
2023-05-22T00:04:09.313Z,4.43
2023-05-22T00:04:20.768Z,4.05
2023-05-22T00:04:32.130Z,4.25
2023-05-22T00:04:43.652Z,4.20
2023-05-22T00:04:55.038Z,4.30
2023-05-22T00:05:06.801Z,4.25
2023-05-22T00:05:18.257Z,4.32
2023-05-22T00:05:29.709Z,4.28
2023-05-22T00:05:41.066Z,4.00
2023-05-22T00:05:52.494Z,3.88
2023-05-22T00:06:03.872Z,4.10
2023-05-22T00:06:15.243Z,4.35
2023-05-22T00:06:26.533Z,4.25
2023-05-22T00:06:37.818Z,4.55
2023-05-22T00:06:49.181Z,4.43
2023-05-22T00:07:00.646Z,4.40
2023-05-22T00:07:11.968Z,4.50
2023-05-22T00:07:23.352Z,4.40
2023-05-22T00:07:34.626Z,4.47
2023-05-22T00:07:45.901Z,4.47
2023-05-22T00:07:57.318Z,4.65
2023-05-22T00:08:08.704Z,4.68
2023-05-22T00:08:20.140Z,4.65
2023-05-22T00:08:31.455Z,4.50
2023-05-22T00:08:42.829Z,4.53
2023-05-22T00:08:54.154Z,4.40
2023-05-22T00:09:05.631Z,4.40
2023-05-22T00:09:16.980Z,4.30
2023-05-22T00:09:28.351Z,4.28
2023-05-22T00:09:39.635Z,4.00
2023-05-22T00:09:50.988Z,3.97
2023-05-22T00:10:02.540Z,3.92
2023-05-22T00:10:13.855Z,4.10
2023-05-22T00:10:25.192Z,4.32
2023-05-22T00:10:36.643Z,4.22
2023-05-22T00:10:48.080Z,4.28
2023-05-22T00:10:59.421Z,4.55
2023-05-22T00:11:10.756Z,4.35
2023-05-22T00:11:29.468Z,4.13
2023-05-22T00:11:49.461Z,3.78
2023-05-22T00:12:00.740Z,4.15
2023-05-22T00:12:12.054Z,4.13
2023-05-22T00:12:23.427Z,3.85
2023-05-22T00:12:34.700Z,3.92
2023-05-22T00:12:46.005Z,4.10
2023-05-22T00:12:57.418Z,4.40
2023-05-22T00:13:08.784Z,4.15
2023-05-22T00:13:20.225Z,4.28
2023-05-22T00:13:31.611Z,4.05
2023-05-22T00:13:43.024Z,4.28
2023-05-22T00:13:54.720Z,4.05
2023-05-22T00:14:06.065Z,4.18
2023-05-22T00:14:17.539Z,4.25
2023-05-22T00:14:28.906Z,4.40
2023-05-22T00:14:40.300Z,4.30
2023-05-22T00:14:51.647Z,4.30
2023-05-22T00:15:03.288Z,4.20
2023-05-22T00:15:14.580Z,4.10
2023-05-22T00:15:25.906Z,4.18
2023-05-22T00:15:37.229Z,4.07
2023-05-22T00:15:48.736Z,3.80
2023-05-22T00:16:00.106Z,3.90
2023-05-22T00:16:11.417Z,3.90
2023-05-22T00:16:22.813Z,4.15
2023-05-22T00:16:34.292Z,4.05
2023-05-22T00:16:45.646Z,3.97
2023-05-22T00:16:57.010Z,3.55
2023-05-22T00:17:08.454Z,3.22
2023-05-22T00:17:19.942Z,3.30
2023-05-22T00:17:31.420Z,3.60
2023-05-22T00:17:42.803Z,3.60
2023-05-22T00:17:54.179Z,3.58
2023-05-22T00:18:05.631Z,3.47
2023-05-22T00:18:16.974Z,3.25
2023-05-22T00:18:28.342Z,3.47
2023-05-22T00:18:39.654Z,3.78
2023-05-22T00:18:50.957Z,3.58
2023-05-22T00:19:02.268Z,3.20
2023-05-22T00:19:13.859Z,3.42
2023-05-22T00:19:25.197Z,3.72
2023-05-22T00:19:36.596Z,4.03
2023-05-22T00:19:47.955Z,3.78
2023-05-22T00:19:59.554Z,3.78
2023-05-22T00:20:11.143Z,3.70
2023-05-22T00:20:22.597Z,3.65
2023-05-22T00:20:33.920Z,3.50
2023-05-22T00:20:45.225Z,3.60
2023-05-22T00:20:56.590Z,3.72
2023-05-22T00:21:08.403Z,3.75
2023-05-22T00:21:19.697Z,3.60
2023-05-22T00:21:30.985Z,3.75
2023-05-22T00:21:42.806Z,3.70
2023-05-22T00:21:54.092Z,3.58
2023-05-22T00:22:05.412Z,3.10
2023-05-22T00:22:16.886Z,3.00
2023-05-22T00:22:28.183Z,3.00
2023-05-22T00:22:39.553Z,3.38
2023-05-22T00:22:50.865Z,3.45
2023-05-22T00:23:02.175Z,3.60
2023-05-22T00:23:15.398Z,3.88
2023-05-22T00:23:27.140Z,3.92
2023-05-22T00:23:38.470Z,3.70
2023-05-22T00:23:50.269Z,3.47
2023-05-22T00:24:02.089Z,3.55
2023-05-22T00:24:13.478Z,3.88
2023-05-22T00:24:24.832Z,3.78
2023-05-22T00:24:36.189Z,3.45
2023-05-22T00:24:47.674Z,3.45
2023-05-22T00:24:59.004Z,4.22
2023-05-22T00:25:10.480Z,4.47
2023-05-22T00:25:21.756Z,4.30
2023-05-22T00:25:33.099Z,3.67
2023-05-22T00:25:44.464Z,3.53
2023-05-22T00:25:55.853Z,3.22
2023-05-22T00:26:07.246Z,3.22
2023-05-22T00:26:18.586Z,3.40
2023-05-22T00:26:30.086Z,3.55
2023-05-22T00:26:41.414Z,3.33
2023-05-22T00:26:52.708Z,3.20
2023-05-22T00:27:04.289Z,3.10
2023-05-22T00:27:15.576Z,3.03
2023-05-22T00:27:27.010Z,3.08
2023-05-22T00:27:38.338Z,3.10
2023-05-22T00:27:49.727Z,3.15
2023-05-22T00:28:01.054Z,3.13
2023-05-22T00:28:12.421Z,3.22
2023-05-22T00:28:23.800Z,3.05
2023-05-22T00:28:35.118Z,3.05
2023-05-22T00:28:46.479Z,3.13
2023-05-22T00:28:57.794Z,3.10
2023-05-22T00:29:09.137Z,3.00
2023-05-22T00:29:20.447Z,3.07
2023-05-22T00:29:31.777Z,3.05
2023-05-22T00:29:43.044Z,3.10
2023-05-22T00:29:54.415Z,3.25
2023-05-22T00:30:06.819Z,3.20
2023-05-22T00:30:18.257Z,3.38
2023-05-22T00:30:29.559Z,3.10
2023-05-22T00:30:41.031Z,3.05
2023-05-22T00:30:52.663Z,3.00
2023-05-22T00:31:04.157Z,3.33
2023-05-22T00:31:15.548Z,3.35
2023-05-22T00:31:26.843Z,3.35
2023-05-22T00:31:38.074Z,3.38
2023-05-22T00:31:49.416Z,3.20
2023-05-22T00:32:01.095Z,3.03
2023-05-22T00:32:12.664Z,2.70
2023-05-22T00:32:25.593Z,3.05
2023-05-22T00:32:37.187Z,3.10
2023-05-22T00:32:48.652Z,2.83
2023-05-22T00:33:00.004Z,2.90
2023-05-22T00:33:11.414Z,2.97
2023-05-22T00:33:22.709Z,3.03
2023-05-22T00:33:34.080Z,3.00
2023-05-22T00:33:45.460Z,3.08
2023-05-22T00:33:56.878Z,3.00
2023-05-22T00:34:08.369Z,3.00
2023-05-22T00:34:19.720Z,2.90
2023-05-22T00:34:31.165Z,2.83
2023-05-22T00:34:42.772Z,2.63
2023-05-22T00:34:54.311Z,2.58
2023-05-22T00:35:06.035Z,2.67
2023-05-22T00:35:17.357Z,2.70
2023-05-22T00:35:28.707Z,2.50
2023-05-22T00:35:40.188Z,2.45
2023-05-22T00:35:51.501Z,2.50
2023-05-22T00:36:02.849Z,2.50
2023-05-22T00:36:14.190Z,2.58
2023-05-22T00:36:25.532Z,2.60
2023-05-22T00:36:37.019Z,2.70
2023-05-22T00:36:48.330Z,2.88
2023-05-22T00:36:59.671Z,2.78
2023-05-22T00:37:10.977Z,2.67
2023-05-22T00:37:22.297Z,2.75
2023-05-22T00:37:33.736Z,2.90
2023-05-22T00:37:45.072Z,3.13
2023-05-22T00:37:56.405Z,3.10
2023-05-22T00:38:07.897Z,2.88
2023-05-22T00:38:32.232Z,2.83
2023-05-22T00:38:43.611Z,2.88
2023-05-22T00:38:55.051Z,2.88
2023-05-22T00:39:06.403Z,2.75
2023-05-22T00:39:17.772Z,3.25
2023-05-22T00:39:29.064Z,3.20
2023-05-22T00:39:40.410Z,3.25
2023-05-22T00:39:51.701Z,2.72
2023-05-22T00:40:03.043Z,2.53
2023-05-22T00:40:14.779Z,2.60
2023-05-22T00:40:26.153Z,2.70
2023-05-22T00:40:37.770Z,2.70
2023-05-22T00:40:49.443Z,2.80
2023-05-22T00:41:01.418Z,3.03
2023-05-22T00:41:12.935Z,2.90
2023-05-22T00:41:24.329Z,2.95
2023-05-22T00:41:35.730Z,3.15
2023-05-22T00:41:47.146Z,2.95
2023-05-22T00:41:58.509Z,2.60
2023-05-22T00:42:09.853Z,2.60
2023-05-22T00:42:21.272Z,2.67
2023-05-22T00:42:32.547Z,2.92
2023-05-22T00:42:44.164Z,3.22
2023-05-22T00:42:55.470Z,2.78
2023-05-22T00:43:06.812Z,2.50
2023-05-22T00:43:18.121Z,2.58
2023-05-22T00:43:29.464Z,2.90
2023-05-22T00:43:40.904Z,2.85
2023-05-22T00:43:52.254Z,2.72
2023-05-22T00:44:03.785Z,2.67
2023-05-22T00:44:15.153Z,2.60
2023-05-22T00:44:26.484Z,2.57
2023-05-22T00:44:37.877Z,2.63
2023-05-22T00:44:49.288Z,2.83
2023-05-22T00:45:00.672Z,2.80
2023-05-22T00:45:12.031Z,2.70
2023-05-22T00:45:23.412Z,2.88
2023-05-22T00:45:34.698Z,2.83
2023-05-22T00:45:45.958Z,2.90
2023-05-22T00:45:57.405Z,2.72
2023-05-22T00:46:08.753Z,2.70
2023-05-22T00:46:20.173Z,2.40
2023-05-22T00:46:33.106Z,2.42
2023-05-22T00:46:44.742Z,2.65
2023-05-22T00:46:56.126Z,2.70
2023-05-22T00:47:07.635Z,2.53
2023-05-22T00:47:19.107Z,2.60
2023-05-22T00:47:30.494Z,2.83
2023-05-22T00:47:42.107Z,2.80
2023-05-22T00:47:53.471Z,2.78
2023-05-22T00:48:04.918Z,2.72
2023-05-22T00:48:16.327Z,2.80
2023-05-22T00:48:27.638Z,2.70
2023-05-22T00:48:38.961Z,2.58
2023-05-22T00:48:50.269Z,2.58
2023-05-22T00:49:01.642Z,2.50
2023-05-22T00:49:12.921Z,2.50
2023-05-22T00:49:24.252Z,2.45
2023-05-22T00:49:35.764Z,2.78
2023-05-22T00:49:47.173Z,3.00
2023-05-22T00:49:59.183Z,2.90
2023-05-22T00:50:10.699Z,2.88
2023-05-22T00:50:22.068Z,2.70
2023-05-22T00:50:33.359Z,2.72
2023-05-22T00:50:44.933Z,2.78
2023-05-22T00:50:57.539Z,2.63
2023-05-22T00:51:08.882Z,2.67
2023-05-22T00:51:21.465Z,2.70
2023-05-22T00:51:33.096Z,2.80
2023-05-22T00:51:44.502Z,2.72
2023-05-22T00:51:55.851Z,2.72
2023-05-22T00:52:07.502Z,2.50
2023-05-22T00:52:19.120Z,2.78
2023-05-22T00:52:30.572Z,3.08
2023-05-22T00:52:43.030Z,3.13
2023-05-22T00:52:54.316Z,2.88
2023-05-22T00:53:05.630Z,2.80
2023-05-22T00:53:19.703Z,2.78
2023-05-22T00:53:31.254Z,2.78
2023-05-22T00:53:43.350Z,2.85
2023-05-22T00:53:54.857Z,2.92
2023-05-22T00:54:06.287Z,2.78
2023-05-22T00:54:17.679Z,2.65
2023-05-22T00:54:30.162Z,2.67
2023-05-22T00:54:41.799Z,2.97
2023-05-22T00:54:53.547Z,3.10
2023-05-22T00:55:05.135Z,3.08
2023-05-22T00:55:16.547Z,2.97
2023-05-22T00:55:27.842Z,2.97
2023-05-22T00:55:39.194Z,2.80
2023-05-22T00:55:51.023Z,2.88
2023-05-22T00:56:02.778Z,2.95
2023-05-22T00:56:14.607Z,2.95
2023-05-22T00:56:25.951Z,2.67
2023-05-22T00:56:37.391Z,2.75
2023-05-22T00:56:48.842Z,3.13
2023-05-22T00:57:00.677Z,3.13
2023-05-22T00:57:12.657Z,3.10
2023-05-22T00:57:23.975Z,2.83
2023-05-22T00:57:36.458Z,2.97
2023-05-22T00:57:47.881Z,2.90
2023-05-22T00:57:59.721Z,2.97
2023-05-22T00:58:13.727Z,2.97
2023-05-22T00:58:26.430Z,2.90
2023-05-22T00:58:37.792Z,2.70
2023-05-22T00:58:49.138Z,2.70
2023-05-22T00:59:00.757Z,2.88
2023-05-22T00:59:12.107Z,2.75
2023-05-22T00:59:23.745Z,2.70
2023-05-22T00:59:35.630Z,3.08
2023-05-22T00:59:47.000Z,3.00
2023-05-22T00:59:58.353Z,2.90
2023-05-22T01:00:10.105Z,2.88
2023-05-22T01:00:21.454Z,2.90
2023-05-22T01:00:33.454Z,2.63
2023-05-22T01:00:45.223Z,2.45
2023-05-22T01:00:56.606Z,2.40
2023-05-22T01:01:08.327Z,2.47
2023-05-22T01:01:19.675Z,2.85
2023-05-22T01:01:31.087Z,2.92
2023-05-22T01:01:42.606Z,2.85
2023-05-22T01:01:55.756Z,2.83
2023-05-22T01:02:07.219Z,2.88
2023-05-22T01:02:18.686Z,3.00
2023-05-22T01:02:30.009Z,2.75
2023-05-22T01:02:41.393Z,2.88
2023-05-22T01:02:52.788Z,2.97
2023-05-22T01:03:04.879Z,2.90
2023-05-22T01:03:17.554Z,2.85
2023-05-22T01:03:29.239Z,3.00
2023-05-22T01:03:41.380Z,3.15
2023-05-22T01:03:53.211Z,3.17
2023-05-22T01:04:05.203Z,3.15
2023-05-22T01:04:16.993Z,3.00
2023-05-22T01:04:28.780Z,2.88
2023-05-22T01:04:40.186Z,2.78
2023-05-22T01:04:51.794Z,2.90
2023-05-22T01:05:04.178Z,3.15
2023-05-22T01:05:15.521Z,3.05
2023-05-22T01:05:26.913Z,2.67
2023-05-22T01:05:38.987Z,2.80
2023-05-22T01:05:50.351Z,2.92
2023-05-22T01:06:01.907Z,2.97
2023-05-22T01:06:16.047Z,2.92
2023-05-22T01:06:27.761Z,3.03
2023-05-22T01:06:39.053Z,3.25
2023-05-22T01:06:50.389Z,2.80
2023-05-22T01:07:01.649Z,2.85
2023-05-22T01:07:13.014Z,2.72
2023-05-22T01:07:24.865Z,3.05
2023-05-22T01:07:36.271Z,2.85
2023-05-22T01:07:47.565Z,2.88
2023-05-22T01:07:58.839Z,2.90
2023-05-22T01:08:10.621Z,2.97
2023-05-22T01:08:21.945Z,2.95
2023-05-22T01:08:33.307Z,2.72
2023-05-22T01:08:44.884Z,2.90
2023-05-22T01:08:56.209Z,2.90
2023-05-22T01:09:07.642Z,2.90
2023-05-22T01:09:18.953Z,2.80
2023-05-22T01:09:30.332Z,2.65
2023-05-22T01:09:41.711Z,2.42
2023-05-22T01:09:53.011Z,2.60
2023-05-22T01:10:04.972Z,2.67
2023-05-22T01:10:16.402Z,2.55
2023-05-22T01:10:28.491Z,2.42
2023-05-22T01:10:40.330Z,2.40
2023-05-22T01:10:56.476Z,2.63
2023-05-22T01:11:09.944Z,2.58
2023-05-22T01:11:28.486Z,2.63
2023-05-22T01:11:50.389Z,2.67
2023-05-22T01:12:09.288Z,2.70
2023-05-22T01:12:24.263Z,2.63
2023-05-22T01:12:43.444Z,2.40
2023-05-22T01:13:16.868Z,2.40
2023-05-22T01:13:44.425Z,2.70
2023-05-22T01:14:00.918Z,2.65
2023-05-22T01:14:13.233Z,2.60
2023-05-22T01:14:24.534Z,2.63
2023-05-22T01:14:54.639Z,2.40
2023-05-22T01:15:24.723Z,2.50
2023-05-22T01:15:40.957Z,2.70
2023-05-22T01:15:54.902Z,2.65
2023-05-22T01:16:09.030Z,2.35
2023-05-22T01:16:36.347Z,2.30
2023-05-22T01:16:53.069Z,2.70
2023-05-22T01:17:20.720Z,2.60
2023-05-22T01:17:47.480Z,2.65
2023-05-22T01:18:12.479Z,2.75
2023-05-22T01:18:33.188Z,2.65
2023-05-22T01:18:49.717Z,3.17
2023-05-22T01:19:04.911Z,3.35
2023-05-22T01:19:19.216Z,2.80
2023-05-22T01:19:52.651Z,2.58
2023-05-22T01:20:22.712Z,2.50
2023-05-22T01:20:37.104Z,2.65
2023-05-22T01:20:51.765Z,2.90
2023-05-22T01:21:13.473Z,2.58
2023-05-22T01:21:31.101Z,2.30
2023-05-22T01:21:58.817Z,2.45
2023-05-22T01:22:19.233Z,2.90
2023-05-22T01:22:34.538Z,3.08
2023-05-22T01:22:55.091Z,2.50
2023-05-22T01:23:26.380Z,2.60
2023-05-22T01:23:40.565Z,3.00
2023-05-22T01:24:00.917Z,2.67
2023-05-22T01:24:21.128Z,2.33
2023-05-22T01:24:41.593Z,2.20
2023-05-22T01:25:22.281Z,2.28
2023-05-22T01:25:36.255Z,2.40
2023-05-22T01:26:05.353Z,2.40
2023-05-22T01:26:22.766Z,2.20
2023-05-22T01:26:43.206Z,2.20
2023-05-22T01:27:03.748Z,2.67
2023-05-22T01:27:33.985Z,2.47
2023-05-22T01:28:04.112Z,2.33
2023-05-22T01:28:50.768Z,2.60
2023-05-22T01:29:02.027Z,2.50
2023-05-22T01:29:32.034Z,2.20
2023-05-22T01:29:58.821Z,2.45
2023-05-22T01:30:13.634Z,2.33
2023-05-22T01:30:41.363Z,2.30
2023-05-22T01:31:02.553Z,2.22
2023-05-22T01:31:17.220Z,2.25
2023-05-22T01:31:30.465Z,2.10
2023-05-22T01:31:43.210Z,2.20
2023-05-22T01:31:55.324Z,2.22
2023-05-22T01:32:08.591Z,2.33
2023-05-22T01:32:20.842Z,2.30
2023-05-22T01:32:32.640Z,2.33
2023-05-22T01:32:46.071Z,2.05
2023-05-22T01:32:57.956Z,2.00
2023-05-22T01:33:09.728Z,2.20
2023-05-22T01:33:21.869Z,2.20
2023-05-22T01:33:36.221Z,2.25
2023-05-22T01:33:57.107Z,2.20
2023-05-22T01:34:10.788Z,2.30
2023-05-22T01:34:22.120Z,2.35
2023-05-22T01:34:34.239Z,2.05
2023-05-22T01:34:46.662Z,2.10
2023-05-22T01:35:01.091Z,2.25
2023-05-22T01:35:15.153Z,2.22
2023-05-22T01:35:27.262Z,2.28
2023-05-22T01:35:39.571Z,2.38
2023-05-22T01:35:51.595Z,2.50
2023-05-22T01:36:03.658Z,2.42
2023-05-22T01:36:17.862Z,2.17
2023-05-22T01:36:31.556Z,2.17
2023-05-22T01:36:44.652Z,2.50
2023-05-22T01:37:00.382Z,2.60
2023-05-22T01:37:12.152Z,2.30
2023-05-22T01:37:24.190Z,2.13
2023-05-22T01:37:36.051Z,2.03
2023-05-22T01:37:47.924Z,2.20
2023-05-22T01:38:00.257Z,2.10
2023-05-22T01:38:12.249Z,2.15
2023-05-22T01:38:24.655Z,2.38
2023-05-22T01:38:36.096Z,2.40
2023-05-22T01:38:47.697Z,2.42
2023-05-22T01:38:59.782Z,2.58
2023-05-22T01:39:11.879Z,2.70
2023-05-22T01:39:24.636Z,2.65
2023-05-22T01:39:36.530Z,2.45
2023-05-22T01:39:51.001Z,2.20
2023-05-22T01:40:02.700Z,2.20
2023-05-22T01:40:14.349Z,2.42
2023-05-22T01:40:25.892Z,2.58
2023-05-22T01:40:37.718Z,2.25
2023-05-22T01:40:49.787Z,2.13
2023-05-22T01:41:01.567Z,2.28
2023-05-22T01:41:13.423Z,2.40
2023-05-22T01:41:27.258Z,2.40
2023-05-22T01:41:40.409Z,2.47
2023-05-22T01:41:51.952Z,2.25
2023-05-22T01:42:03.860Z,2.20
2023-05-22T01:42:15.211Z,2.08
2023-05-22T01:42:30.662Z,2.10
2023-05-22T01:42:42.199Z,2.35
2023-05-22T01:42:53.525Z,2.15
2023-05-22T01:43:04.995Z,2.30
2023-05-22T01:43:19.393Z,2.38
2023-05-22T01:43:30.717Z,2.38
2023-05-22T01:43:42.202Z,2.30
2023-05-22T01:44:00.316Z,2.33
2023-05-22T01:44:11.634Z,2.25
2023-05-22T01:44:23.015Z,2.10
2023-05-22T01:44:34.331Z,2.00
2023-05-22T01:44:45.783Z,2.15
2023-05-22T01:44:57.652Z,2.15
2023-05-22T01:45:10.303Z,2.17
2023-05-22T01:45:21.739Z,2.30
2023-05-22T01:45:34.130Z,2.40
2023-05-22T01:45:45.536Z,2.30
2023-05-22T01:45:57.248Z,2.25
2023-05-22T01:46:08.611Z,2.10
2023-05-22T01:46:20.264Z,1.92
2023-05-22T01:46:32.140Z,2.20
2023-05-22T01:46:43.684Z,2.30
2023-05-22T01:46:54.983Z,2.40
2023-05-22T01:47:06.509Z,2.35
2023-05-22T01:47:17.944Z,2.30
2023-05-22T01:47:29.318Z,2.33
2023-05-22T01:47:40.688Z,2.38
2023-05-22T01:47:52.185Z,2.40
2023-05-22T01:48:04.601Z,2.20
2023-05-22T01:48:16.048Z,2.40
2023-05-22T01:48:27.365Z,2.30
2023-05-22T01:48:38.781Z,2.17
2023-05-22T01:48:50.089Z,1.90
2023-05-22T01:49:01.465Z,2.10
2023-05-22T01:49:12.837Z,2.17
2023-05-22T01:49:24.158Z,2.00
2023-05-22T01:49:35.617Z,1.92
2023-05-22T01:49:47.011Z,1.90
2023-05-22T01:49:58.328Z,2.15
2023-05-22T01:50:10.071Z,2.08
2023-05-22T01:50:21.599Z,2.20
2023-05-22T01:50:33.384Z,2.10
2023-05-22T01:50:45.430Z,2.13
2023-05-22T01:50:57.705Z,2.08
2023-05-22T01:51:29.204Z,2.20
2023-05-22T01:51:55.240Z,2.00
2023-05-22T01:52:09.470Z,2.20
2023-05-22T01:52:23.984Z,2.13
2023-05-22T01:52:53.943Z,1.85
2023-05-22T01:53:12.934Z,2.00
2023-05-22T01:53:29.997Z,2.13
2023-05-22T01:53:49.313Z,2.13
2023-05-22T01:54:04.267Z,2.00
2023-05-22T01:54:24.550Z,1.98
2023-05-22T01:55:02.562Z,1.70
2023-05-22T01:55:16.665Z,2.13
2023-05-22T01:55:36.835Z,1.75
2023-05-22T01:55:48.178Z,1.88
2023-05-22T01:56:14.623Z,2.10
2023-05-22T01:56:32.017Z,2.17
2023-05-22T01:56:52.318Z,2.08
2023-05-22T01:57:07.413Z,2.22
2023-05-22T01:57:19.545Z,2.10
2023-05-22T01:57:34.860Z,2.10
2023-05-22T01:57:51.879Z,2.60
2023-05-22T01:58:08.346Z,2.47
2023-05-22T01:58:39.964Z,2.05
2023-05-22T01:59:01.957Z,2.33
2023-05-22T01:59:23.424Z,2.17
2023-05-22T01:59:34.672Z,2.20
2023-05-22T01:59:49.919Z,2.40
2023-05-22T02:00:07.906Z,2.28
2023-05-22T02:00:20.886Z,1.95
2023-05-22T02:00:32.543Z,1.90
2023-05-22T02:00:45.638Z,2.10
2023-05-22T02:00:58.187Z,2.00
2023-05-22T02:01:11.992Z,2.03
2023-05-22T02:01:26.988Z,2.15
2023-05-22T02:01:39.242Z,2.15
2023-05-22T02:01:51.414Z,1.95
2023-05-22T02:02:07.608Z,1.65
2023-05-22T02:02:20.586Z,1.75
2023-05-22T02:02:32.579Z,1.75
2023-05-22T02:02:48.055Z,1.85
2023-05-22T02:03:06.732Z,2.08
2023-05-22T02:03:20.001Z,2.30
2023-05-22T02:03:32.326Z,2.22
2023-05-22T02:03:45.601Z,2.45
2023-05-22T02:03:58.220Z,2.30
2023-05-22T02:04:09.945Z,2.20
2023-05-22T02:04:22.552Z,2.20
2023-05-22T02:04:37.436Z,2.00
2023-05-22T02:05:01.253Z,2.00
2023-05-22T02:05:13.931Z,2.10
2023-05-22T02:05:26.659Z,2.13
2023-05-22T02:05:39.317Z,2.25
2023-05-22T02:05:53.093Z,2.03
2023-05-22T02:06:08.774Z,1.90
2023-05-22T02:06:20.230Z,1.92
2023-05-22T02:06:33.150Z,1.85
2023-05-22T02:06:46.538Z,1.92
2023-05-22T02:06:58.817Z,2.25
2023-05-22T02:07:12.436Z,2.20
2023-05-22T02:07:25.145Z,2.13
2023-05-22T02:07:37.961Z,1.83
2023-05-22T02:07:50.062Z,2.10
2023-05-22T02:08:02.188Z,2.00
2023-05-22T02:08:14.384Z,2.00
2023-05-22T02:08:26.452Z,1.90
2023-05-22T02:08:38.692Z,2.08
2023-05-22T02:08:51.148Z,1.88
2023-05-22T02:09:02.685Z,1.98
2023-05-22T02:09:15.570Z,2.17
2023-05-22T02:09:29.276Z,2.17
2023-05-22T02:09:41.044Z,2.08
2023-05-22T02:09:53.711Z,2.08
2023-05-22T02:10:05.873Z,2.08
2023-05-22T02:10:18.487Z,1.98
2023-05-22T02:10:30.459Z,1.83
2023-05-22T02:10:42.360Z,2.10
2023-05-22T02:10:55.684Z,2.08
2023-05-22T02:11:07.670Z,1.85
2023-05-22T02:11:20.229Z,2.00
2023-05-22T02:11:32.754Z,2.17
2023-05-22T02:11:44.238Z,2.17
2023-05-22T02:11:55.834Z,2.05
2023-05-22T02:12:07.803Z,2.17
2023-05-22T02:12:20.701Z,2.10
2023-05-22T02:12:32.047Z,2.00
2023-05-22T02:12:45.560Z,2.00
2023-05-22T02:13:00.220Z,1.90
2023-05-22T02:13:11.767Z,2.00
2023-05-22T02:13:24.306Z,1.88
2023-05-22T02:13:35.974Z,1.75
2023-05-22T02:13:49.009Z,1.90
2023-05-22T02:14:00.509Z,1.95
2023-05-22T02:14:13.041Z,2.17
2023-05-22T02:14:24.817Z,2.22
2023-05-22T02:14:36.430Z,2.25
2023-05-22T02:14:47.996Z,2.38
2023-05-22T02:14:59.688Z,2.33
2023-05-22T02:15:11.171Z,2.35
2023-05-22T02:15:24.822Z,1.98
2023-05-22T02:15:36.683Z,1.88
2023-05-22T02:15:48.577Z,1.83
2023-05-22T02:16:01.452Z,1.92
2023-05-22T02:16:12.905Z,2.13
2023-05-22T02:16:24.508Z,2.17
2023-05-22T02:16:36.067Z,2.05
2023-05-22T02:16:47.482Z,1.90
2023-05-22T02:16:59.490Z,2.08
2023-05-22T02:17:10.850Z,2.15
2023-05-22T02:17:22.404Z,2.00
2023-05-22T02:17:37.368Z,2.13
2023-05-22T02:17:49.827Z,2.22
2023-05-22T02:18:01.300Z,2.28
2023-05-22T02:18:13.089Z,2.50
2023-05-22T02:18:27.730Z,2.60
2023-05-22T02:18:39.002Z,2.22
2023-05-22T02:18:50.397Z,2.05
2023-05-22T02:19:01.838Z,2.30
2023-05-22T02:19:13.951Z,2.53
2023-05-22T02:19:25.412Z,2.60
2023-05-22T02:19:36.873Z,2.30
2023-05-22T02:19:48.251Z,2.20
2023-05-22T02:19:59.603Z,2.08
2023-05-22T02:20:12.944Z,1.83
2023-05-22T02:20:24.293Z,1.77
2023-05-22T02:20:35.640Z,2.00
2023-05-22T02:20:46.988Z,2.10
2023-05-22T02:20:58.331Z,2.35
2023-05-22T02:21:09.602Z,2.13
2023-05-22T02:21:22.023Z,2.10
2023-05-22T02:21:33.879Z,2.10
2023-05-22T02:21:45.187Z,2.20
2023-05-22T02:21:56.503Z,2.25
2023-05-22T02:22:07.794Z,2.17
2023-05-22T02:22:19.158Z,2.00
2023-05-22T02:22:30.559Z,2.20
2023-05-22T02:22:46.793Z,2.10
2023-05-22T02:22:58.125Z,2.20
2023-05-22T02:23:09.687Z,2.17
2023-05-22T02:23:21.020Z,2.33
2023-05-22T02:23:32.323Z,2.20
2023-05-22T02:23:43.690Z,2.13
2023-05-22T02:23:55.057Z,1.88
2023-05-22T02:24:06.469Z,2.05
2023-05-22T02:24:18.046Z,2.25
2023-05-22T02:24:30.362Z,2.28
2023-05-22T02:24:42.975Z,2.10
2023-05-22T02:24:54.361Z,2.13
2023-05-22T02:25:05.874Z,2.08
2023-05-22T02:25:17.541Z,2.10
2023-05-22T02:25:29.049Z,2.08
2023-05-22T02:25:40.370Z,2.05
2023-05-22T02:25:51.912Z,2.13
2023-05-22T02:26:03.973Z,2.30
2023-05-22T02:26:15.330Z,2.30
2023-05-22T02:26:26.708Z,2.15
2023-05-22T02:26:38.016Z,2.10
2023-05-22T02:26:49.309Z,2.10
2023-05-22T02:27:00.627Z,2.15
2023-05-22T02:27:12.018Z,2.17
2023-05-22T02:27:23.261Z,2.10
2023-05-22T02:27:34.624Z,1.98
2023-05-22T02:27:46.940Z,2.10
2023-05-22T02:27:58.317Z,2.08
2023-05-22T02:28:09.846Z,2.03
2023-05-22T02:28:21.266Z,2.17
2023-05-22T02:28:33.059Z,2.20
2023-05-22T02:28:44.405Z,2.28
2023-05-22T02:28:55.815Z,2.20
2023-05-22T02:29:07.140Z,2.35
2023-05-22T02:29:18.461Z,2.20
2023-05-22T02:29:29.748Z,2.30
2023-05-22T02:29:41.053Z,2.28
2023-05-22T02:29:52.363Z,2.55
2023-05-22T02:30:06.105Z,2.53
2023-05-22T02:30:17.479Z,2.47
2023-05-22T02:30:29.846Z,2.50
2023-05-22T02:30:41.314Z,2.30
2023-05-22T02:30:52.995Z,2.33
2023-05-22T02:31:04.530Z,2.13
2023-05-22T02:31:15.976Z,1.90
2023-05-22T02:31:27.383Z,1.90
2023-05-22T02:31:38.944Z,2.15
2023-05-22T02:31:50.494Z,2.30
2023-05-22T02:32:01.801Z,2.22
2023-05-22T02:32:13.129Z,2.45
2023-05-22T02:32:24.473Z,2.30
2023-05-22T02:32:35.906Z,2.13
2023-05-22T02:32:47.307Z,2.08
2023-05-22T02:33:00.325Z,2.20
2023-05-22T02:33:11.773Z,2.20
2023-05-22T02:33:23.178Z,2.13
2023-05-22T02:33:34.517Z,2.10
2023-05-22T02:33:45.849Z,2.10
2023-05-22T02:33:57.237Z,1.88
2023-05-22T02:34:08.572Z,2.25
2023-05-22T02:34:19.907Z,2.33
2023-05-22T02:34:31.424Z,2.35
2023-05-22T02:34:42.758Z,2.08
2023-05-22T02:34:54.856Z,2.20
2023-05-22T02:35:06.813Z,2.40
2023-05-22T02:35:18.112Z,2.30
2023-05-22T02:35:29.528Z,2.33
2023-05-22T02:35:40.896Z,2.20
2023-05-22T02:35:52.244Z,2.20
2023-05-22T02:36:03.556Z,2.10
2023-05-22T02:36:15.160Z,2.20
2023-05-22T02:36:26.486Z,2.20
2023-05-22T02:36:37.750Z,2.15
2023-05-22T02:36:49.072Z,2.00
2023-05-22T02:37:00.935Z,2.15
2023-05-22T02:37:12.316Z,2.13
2023-05-22T02:37:23.703Z,2.40
2023-05-22T02:37:35.209Z,2.30
2023-05-22T02:37:47.379Z,2.08
2023-05-22T02:37:58.651Z,1.88
2023-05-22T02:38:10.088Z,2.38
2023-05-22T02:38:21.439Z,2.50
2023-05-22T02:38:32.785Z,2.40
2023-05-22T02:38:44.132Z,2.30
2023-05-22T02:38:55.708Z,2.20
2023-05-22T02:39:07.073Z,2.25
2023-05-22T02:39:18.702Z,2.13
2023-05-22T02:39:30.318Z,2.25
2023-05-22T02:39:41.612Z,2.13
2023-05-22T02:39:52.893Z,2.47
2023-05-22T02:40:04.627Z,2.65
2023-05-22T02:40:15.958Z,2.45
2023-05-22T02:40:27.463Z,2.30
2023-05-22T02:40:38.986Z,2.08
2023-05-22T02:40:50.769Z,2.20
2023-05-22T02:41:03.246Z,2.13
2023-05-22T02:41:14.545Z,2.15
2023-05-22T02:41:26.215Z,2.20
2023-05-22T02:41:37.607Z,2.35
2023-05-22T02:41:48.956Z,2.58
2023-05-22T02:42:00.303Z,2.45
2023-05-22T02:42:13.879Z,2.20
2023-05-22T02:42:25.896Z,2.08
2023-05-22T02:42:37.208Z,2.30
2023-05-22T02:42:49.389Z,2.30
2023-05-22T02:43:00.714Z,2.20
2023-05-22T02:43:12.001Z,2.28
2023-05-22T02:43:23.363Z,2.47
2023-05-22T02:43:34.664Z,2.30
2023-05-22T02:43:46.250Z,2.38
2023-05-22T02:43:57.627Z,2.40
2023-05-22T02:44:08.961Z,2.50
2023-05-22T02:44:20.314Z,2.40
2023-05-22T02:44:31.655Z,2.50
2023-05-22T02:44:43.061Z,2.45
2023-05-22T02:44:54.382Z,2.42
2023-05-22T02:45:06.864Z,2.25
2023-05-22T02:45:18.300Z,2.25
2023-05-22T02:45:29.768Z,2.35
2023-05-22T02:45:41.245Z,2.40
2023-05-22T02:45:52.588Z,2.25
2023-05-22T02:46:04.166Z,2.20
2023-05-22T02:46:15.566Z,2.20
2023-05-22T02:46:26.990Z,2.13
2023-05-22T02:46:38.334Z,2.08
2023-05-22T02:46:49.765Z,2.25
2023-05-22T02:47:01.262Z,2.22
2023-05-22T02:47:12.583Z,2.22
2023-05-22T02:47:23.890Z,2.30
2023-05-22T02:47:35.179Z,2.40
2023-05-22T02:47:46.763Z,2.25
2023-05-22T02:48:00.585Z,2.15
2023-05-22T02:48:11.974Z,2.10
2023-05-22T02:48:23.284Z,2.17
2023-05-22T02:48:34.618Z,2.10
2023-05-22T02:48:45.943Z,2.10
2023-05-22T02:48:57.409Z,2.10
2023-05-22T02:49:08.704Z,2.10
2023-05-22T02:49:20.161Z,2.30
2023-05-22T02:49:31.478Z,2.35
2023-05-22T02:49:43.022Z,2.40
2023-05-22T02:49:54.360Z,2.45
2023-05-22T02:50:05.996Z,2.45
2023-05-22T02:50:17.395Z,2.30
2023-05-22T02:50:28.764Z,2.20